Time;durP1;ratioP1;P1;durP2;ratioP2;P2;SDS_P1;SDS_P2;PMS_P1;PMS_P2;Temp;Humidity;BMP_temperature;BMP_pressure;BME280_temperature;BME280_humidity;BME280_pressure;Samples;Min_cycle;Max_cycle;Signal;HPM_P1;HPM_P2
2022/09/24 00:02:14;;;;;;;;;;;;;;;;;;5062823;28;19935;-68
2022/09/24 00:04:39;;;;;;;;;;;;;;;;;;5084665;28;19919;-69
2022/09/24 00:07:04;;;;;;;;;;;;;;;;;;5061928;28;19912;-70
2022/09/24 00:09:29;;;;;;;;;;;;;;;;;;5052737;28;19913;-69
2022/09/24 00:11:54;;;;;;;;;;;;;;;;;;5060718;28;19920;-70
2022/09/24 00:14:20;;;;;;;;;;;;;;;;;;5061363;28;19963;-70
2022/09/24 00:16:45;;;;;;;;;;;;;;;;;;5083020;28;19935;-69
2022/09/24 00:19:10;;;;;;;;;;;;;;;;;;5085334;28;19920;-70
2022/09/24 00:21:36;;;;;;;;;;;;;;;;;;5061949;28;19912;-71
2022/09/24 00:24:01;;;;;;;;;;;;;;;;;;5058692;28;19912;-70
2022/09/24 00:29:10;;;;;;;;;;;;;;;;;;5073514;28;20396;-70
2022/09/24 00:31:35;;;;;;;;;;;;;;;;;;5080027;28;19916;-71
2022/09/24 00:34:00;;;;;;;;;;;;;;;;;;5084372;28;20012;-70
2022/09/24 00:36:26;;;;;;;;;;;;;;;;;;5082427;28;20326;-70
2022/09/24 00:38:51;;;;;;;;;;;;;;;;;;5075186;28;20280;-70
2022/09/24 00:41:16;;;;;;;;;;;;;;;;;;5076187;28;19912;-71
2022/09/24 00:43:41;;;;;;;;;;;;;;;;;;5055519;28;20079;-70
2022/09/24 00:46:06;;;;;;;;;;;;;;;;;;5065614;28;19920;-71
2022/09/24 00:48:33;;;;;;;;;;;;;;;;;;5065113;28;19973;-70
2022/09/24 00:50:58;;;;;;;;;;;;;;;;;;5080056;28;19916;-70
2022/09/24 00:53:27;;;;;;;;;;;;;;;;;;5075887;28;20651;-70
2022/09/24 00:55:53;;;;;;;;;;;;;;;;;;5072541;28;19912;-70
2022/09/24 00:58:18;;;;;;;;;;;;;;;;;;5055163;28;19912;-70
2022/09/24 01:00:44;;;;;;;;;;;;;;;;;;5083753;28;19912;-69
2022/09/24 01:03:09;;;;;;;;;;;;;;;;;;5086814;28;19970;-69
2022/09/24 01:05:34;;;;;;;;;;;;;;;;;;5080199;28;19912;-69
2022/09/24 01:07:59;;;;;;;;;;;;;;;;;;5071534;28;20019;-70
2022/09/24 01:13:08;;;;;;;;;;;;;;;;;;5080460;28;20036;-70
2022/09/24 01:15:33;;;;;;;;;;;;;;;;;;5065518;28;20541;-70
2022/09/24 01:17:58;;;;;;;;;;;;;;;;;;5086657;28;19920;-71
2022/09/24 01:20:23;;;;;;;;;;;;;;;;;;5060446;28;20162;-71
2022/09/24 01:22:49;;;;;;;;;;;;;;;;;;5077279;28;19957;-71
2022/09/24 01:25:14;;;;;;;;;;;;;;;;;;5086426;28;19963;-70
2022/09/24 01:27:40;;;;;;;;;;;;;;;;;;5088157;28;19912;-71
2022/09/24 01:30:05;;;;;;;;;;;;;;;;;;5084924;28;19916;-70
2022/09/24 01:32:32;;;;;;;;;;;;;;;;;;5082102;28;19916;-71
2022/09/24 01:34:57;;;;;;;;;;;;;;;;;;5086034;28;19917;-70
2022/09/24 01:37:22;;;;;;;;;;;;;;;;;;5073871;28;19999;-71
2022/09/24 01:39:47;;;;;;;;;;;;;;;;;;5056664;28;19928;-71
2022/09/24 01:42:12;;;;;;;;;;;;;;;;;;5079413;28;19912;-70
2022/09/24 01:44:41;;;;;;;;;;;;;;;;;;5081920;28;19916;-70
2022/09/24 01:47:06;;;;;;;;;;;;;;;;;;5082250;28;19951;-71
2022/09/24 01:49:31;;;;;;;;;;;;;;;;;;5062460;28;20388;-71
2022/09/24 01:51:57;;;;;;;;;;;;;;;;;;5079593;28;20335;-71
2022/09/24 01:54:22;;;;;;;;;;;;;;;;;;5066420;28;19916;-69
2022/09/24 01:56:48;;;;;;;;;;;;;;;;;;5079471;28;20533;-72
2022/09/24 01:59:13;;;;;;;;;;;;;;;;;;5060806;28;19955;-71
2022/09/24 02:01:38;;;;;;;;;;;;;;;;;;5061836;28;19919;-70
2022/09/24 02:04:05;;;;;;;;;;;;;;;;;;5080856;28;19918;-70
2022/09/24 02:06:30;;;;;;;;;;;;;;;;;;5080285;28;19916;-70
2022/09/24 02:08:55;;;;;;;;;;;;;;;;;;5083747;28;20342;-70
2022/09/24 02:11:21;;;;;;;;;;;;;;;;;;5088430;28;19916;-70
2022/09/24 02:13:46;;;;;;;;;;;;;;;;;;5062024;28;20284;-70
2022/09/24 02:16:15;;;;;;;;;;;;;;;;;;5082903;28;19916;-70
2022/09/24 02:18:40;;;;;;;;;;;;;;;;;;5090515;28;19926;-70
2022/09/24 02:21:05;;;;;;;;;;;;;;;;;;5065377;28;19953;-70
2022/09/24 02:23:30;;;;;;;;;;;;;;;;;;5079391;28;19916;-70
2022/09/24 02:25:56;;;;;;;;;;;;;;;;;;5077047;28;19916;-69
2022/09/24 02:28:21;;;;;;;;;;;;;;;;;;5085376;28;20063;-70
2022/09/24 02:30:47;;;;;;;;;;;;;;;;;;5066350;28;20007;-69
2022/09/24 02:35:57;;;;;;;;;;;;;;;;;;5047192;28;19970;-70
2022/09/24 02:38:22;;;;;;;;;;;;;;;;;;5079114;28;19951;-70
2022/09/24 02:40:47;;;;;;;;;;;;;;;;;;5080393;28;19920;-70
2022/09/24 02:43:12;;;;;;;;;;;;;;;;;;5083784;28;19912;-70
2022/09/24 02:45:38;;;;;;;;;;;;;;;;;;5079932;28;19920;-70
2022/09/24 02:48:03;;;;;;;;;;;;;;;;;;5077891;28;20053;-70
2022/09/24 02:50:28;;;;;;;;;;;;;;;;;;5065748;28;19912;-70
2022/09/24 02:52:53;;;;;;;;;;;;;;;;;;5075578;28;19916;-70
2022/09/24 02:55:18;;;;;;;;;;;;;;;;;;5055973;28;19991;-70
2022/09/24 02:57:44;;;;;;;;;;;;;;;;;;5066337;28;19920;-70
2022/09/24 03:00:09;;;;;;;;;;;;;;;;;;5091474;28;19913;-70
2022/09/24 03:02:34;;;;;;;;;;;;;;;;;;5068605;28;19912;-70
2022/09/24 03:04:59;;;;;;;;;;;;;;;;;;5070962;28;19966;-70
2022/09/24 03:07:24;;;;;;;;;;;;;;;;;;5075154;28;20361;-71
2022/09/24 03:09:49;;;;;;;;;;;;;;;;;;5054347;28;19913;-70
2022/09/24 03:12:14;;;;;;;;;;;;;;;;;;5082367;28;19920;-71
2022/09/24 03:14:40;;;;;;;;;;;;;;;;;;5082894;28;19912;-70
2022/09/24 03:17:05;;;;;;;;;;;;;;;;;;5064198;28;20438;-70
2022/09/24 03:19:30;;;;;;;;;;;;;;;;;;5068484;28;19917;-69
2022/09/24 03:21:55;;;;;;;;;;;;;;;;;;5067118;28;19916;-69
2022/09/24 03:24:20;;;;;;;;;;;;;;;;;;5061629;28;19928;-70
2022/09/24 03:26:45;;;;;;;;;;;;;;;;;;5040156;28;19970;-69
2022/09/24 03:29:10;;;;;;;;;;;;;;;;;;5059638;28;19935;-71
2022/09/24 03:31:36;;;;;;;;;;;;;;;;;;5044030;28;20289;-70
2022/09/24 03:34:01;;;;;;;;;;;;;;;;;;5069256;28;19919;-70
2022/09/24 03:36:26;;;;;;;;;;;;;;;;;;5033906;28;19966;-70
2022/09/24 03:38:52;;;;;;;;;;;;;;;;;;5043510;28;20380;-70
2022/09/24 03:41:17;;;;;;;;;;;;;;;;;;5053498;28;20460;-70
2022/09/24 03:43:42;;;;;;;;;;;;;;;;;;5064611;28;20359;-70
2022/09/24 03:46:07;;;;;;;;;;;;;;;;;;5062922;28;19965;-71
2022/09/24 03:48:32;;;;;;;;;;;;;;;;;;5068122;28;19959;-70
2022/09/24 03:50:57;;;;;;;;;;;;;;;;;;5061601;28;19928;-71
2022/09/24 03:53:22;;;;;;;;;;;;;;;;;;5047811;28;19908;-70
2022/09/24 03:55:48;;;;;;;;;;;;;;;;;;5059806;28;19936;-70
2022/09/24 03:58:13;;;;;;;;;;;;;;;;;;5042951;28;19920;-71
2022/09/24 04:00:38;;;;;;;;;;;;;;;;;;5045524;28;19924;-70
2022/09/24 04:03:03;;;;;;;;;;;;;;;;;;5063014;28;19913;-69
2022/09/24 04:05:29;;;;;;;;;;;;;;;;;;5066037;28;19917;-69
2022/09/24 04:07:54;;;;;;;;;;;;;;;;;;5057975;28;19908;-70
2022/09/24 04:10:19;;;;;;;;;;;;;;;;;;5058096;28;19912;-70
2022/09/24 04:12:44;;;;;;;;;;;;;;;;;;5039977;28;19917;-70
2022/09/24 04:15:10;;;;;;;;;;;;;;;;;;5068498;28;19999;-69
2022/09/24 04:17:35;;;;;;;;;;;;;;;;;;5061312;28;19962;-70
2022/09/24 04:20:00;;;;;;;;;;;;;;;;;;5083225;28;20353;-70
2022/09/24 04:22:26;;;;;;;;;;;;;;;;;;5075477;28;20280;-70
2022/09/24 04:24:51;;;;;;;;;;;;;;;;;;5080604;28;19974;-70
2022/09/24 04:27:16;;;;;;;;;;;;;;;;;;5066132;28;19908;-70
2022/09/24 04:29:42;;;;;;;;;;;;;;;;;;5069090;28;19916;-70
2022/09/24 04:32:07;;;;;;;;;;;;;;;;;;5073248;28;19924;-70
2022/09/24 04:34:32;;;;;;;;;;;;;;;;;;5096490;28;20269;-68
2022/09/24 04:36:57;;;;;;;;;;;;;;;;;;5070727;28;19957;-69
2022/09/24 04:39:25;;;;;;;;;;;;;;;;;;5080377;28;19922;-69
2022/09/24 04:41:50;;;;;;;;;;;;;;;;;;5060995;28;19958;-70
2022/09/24 04:44:15;;;;;;;;;;;;;;;;;;5080036;28;19920;-69
2022/09/24 04:46:41;;;;;;;;;;;;;;;;;;5080802;28;20414;-71
2022/09/24 04:49:08;;;;;;;;;;;;;;;;;;5085106;28;20360;-71
2022/09/24 04:51:34;;;;;;;;;;;;;;;;;;5088112;28;19923;-70
2022/09/24 04:54:01;;;;;;;;;;;;;;;;;;5057582;28;20558;-71
2022/09/24 04:56:26;;;;;;;;;;;;;;;;;;5060457;28;19960;-71
2022/09/24 04:58:52;;;;;;;;;;;;;;;;;;5082526;28;20081;-70
2022/09/24 05:01:17;;;;;;;;;;;;;;;;;;5081019;28;20380;-70
2022/09/24 05:03:43;;;;;;;;;;;;;;;;;;5086443;28;20029;-70
2022/09/24 05:06:08;;;;;;;;;;;;;;;;;;5073493;28;20300;-70
2022/09/24 05:08:33;;;;;;;;;;;;;;;;;;5077206;28;19912;-71
2022/09/24 05:11:01;;;;;;;;;;;;;;;;;;5071094;28;20283;-71
2022/09/24 05:13:26;;;;;;;;;;;;;;;;;;5065774;28;21373;-71
2022/09/24 05:15:51;;;;;;;;;;;;;;;;;;5085908;28;20016;-69
2022/09/24 05:18:16;;;;;;;;;;;;;;;;;;5092798;28;19981;-70
2022/09/24 05:20:41;;;;;;;;;;;;;;;;;;5086077;28;20309;-70
2022/09/24 05:23:07;;;;;;;;;;;;;;;;;;5065184;28;20302;-70
2022/09/24 05:25:32;;;;;;;;;;;;;;;;;;5083135;28;19966;-70
2022/09/24 05:27:57;;;;;;;;;;;;;;;;;;5086453;28;20007;-71
2022/09/24 05:30:22;;;;;;;;;;;;;;;;;;5083287;28;19939;-70
2022/09/24 05:32:50;;;;;;;;;;;;;;;;;;5083716;28;20325;-69
2022/09/24 05:35:16;;;;;;;;;;;;;;;;;;5082339;28;20313;-69
2022/09/24 05:37:41;;;;;;;;;;;;;;;;;;5086734;28;19919;-69
2022/09/24 05:42:58;;;;;;;;;;;;;;;;;;5053270;28;19928;-70
2022/09/24 05:45:23;;;;;;;;;;;;;;;;;;5078150;28;19916;-69
2022/09/24 05:47:48;;;;;;;;;;;;;;;;;;5084821;28;20327;-69
2022/09/24 05:50:13;;;;;;;;;;;;;;;;;;5080430;28;20361;-70
2022/09/24 05:52:39;;;;;;;;;;;;;;;;;;5079520;28;20385;-69
2022/09/24 05:55:04;;;;;;;;;;;;;;;;;;5073879;28;19920;-69
2022/09/24 05:57:29;;;;;;;;;;;;;;;;;;5092936;28;20341;-69
2022/09/24 05:59:54;;;;;;;;;;;;;;;;;;5059520;28;20361;-69
2022/09/24 06:02:19;;;;;;;;;;;;;;;;;;5056372;28;19973;-68
2022/09/24 06:04:44;;;;;;;;;;;;;;;;;;5066457;28;19912;-68
2022/09/24 06:07:10;;;;;;;;;;;;;;;;;;5057547;28;19916;-68
2022/09/24 06:09:35;;;;;;;;;;;;;;;;;;5086129;28;19920;-68
2022/09/24 06:12:01;;;;;;;;;;;;;;;;;;5077236;28;19971;-68
2022/09/24 06:14:27;;;;;;;;;;;;;;;;;;5084307;28;19916;-68
2022/09/24 06:16:52;;;;;;;;;;;;;;;;;;5073926;28;21037;-68
2022/09/24 06:19:17;;;;;;;;;;;;;;;;;;5077772;28;19977;-68
2022/09/24 06:21:42;;;;;;;;;;;;;;;;;;5072665;28;19912;-68
2022/09/24 06:24:07;;;;;;;;;;;;;;;;;;5080877;28;19953;-68
2022/09/24 06:26:33;;;;;;;;;;;;;;;;;;5075559;28;19913;-68
2022/09/24 06:28:59;;;;;;;;;;;;;;;;;;5054990;28;20021;-69
2022/09/24 06:31:24;;;;;;;;;;;;;;;;;;5079785;28;19997;-68
2022/09/24 06:33:49;;;;;;;;;;;;;;;;;;5079631;28;20001;-68
2022/09/24 06:36:14;;;;;;;;;;;;;;;;;;5055558;28;20564;-68
2022/09/24 06:38:40;;;;;;;;;;;;;;;;;;5091766;28;19912;-68
2022/09/24 06:41:05;;;;;;;;;;;;;;;;;;5074997;28;19920;-68
2022/09/24 06:43:30;;;;;;;;;;;;;;;;;;5092206;28;19928;-69
2022/09/24 06:45:55;;;;;;;;;;;;;;;;;;5072766;28;19917;-67
2022/09/24 06:48:21;;;;;;;;;;;;;;;;;;5081566;28;20333;-69
2022/09/24 06:50:46;;;;;;;;;;;;;;;;;;5080094;28;19920;-69
2022/09/24 06:53:12;;;;;;;;;;;;;;;;;;5082684;28;20003;-68
2022/09/24 06:55:37;;;;;;;;;;;;;;;;;;5080711;28;19970;-68
2022/09/24 06:58:02;;;;;;;;;;;;;;;;;;5062986;28;19920;-67
2022/09/24 07:00:27;;;;;;;;;;;;;;;;;;5075833;28;19912;-68
2022/09/24 07:02:52;;;;;;;;;;;;;;;;;;5085320;28;19912;-69
2022/09/24 07:05:17;;;;;;;;;;;;;;;;;;5066576;28;19916;-68
2022/09/24 07:07:42;;;;;;;;;;;;;;;;;;5077692;28;19965;-68
2022/09/24 07:10:09;;;;;;;;;;;;;;;;;;5055581;28;19916;-73
2022/09/24 07:12:35;;;;;;;;;;;;;;;;;;5060968;28;19916;-73
2022/09/24 07:15:00;;;;;;;;;;;;;;;;;;5060540;28;19999;-73
2022/09/24 07:17:35;;;;;;;;;;;;;;;;;;5109587;27;20019;-74
2022/09/24 07:20:00;;;;;;;;;;;;;;;;;;5079496;28;20042;-75
2022/09/24 07:22:25;;;;;;;;;;;;;;;;;;5097545;28;19920;-73
2022/09/24 07:24:50;;;;;;;;;;;;;;;;;;5077611;28;19938;-73
2022/09/24 07:27:15;;;;;;;;;;;;;;;;;;5094844;28;19927;-74
2022/09/24 07:29:40;;;;;;;;;;;;;;;;;;5084388;28;20017;-74
2022/09/24 07:32:06;;;;;;;;;;;;;;;;;;5101396;28;19912;-74
2022/09/24 07:34:31;;;;;;;;;;;;;;;;;;5091094;28;20117;-74
2022/09/24 07:36:56;;;;;;;;;;;;;;;;;;5100812;28;20291;-74
2022/09/24 07:39:21;;;;;;;;;;;;;;;;;;5101243;28;20423;-74
2022/09/24 07:41:46;;;;;;;;;;;;;;;;;;5095046;28;20388;-73
2022/09/24 07:44:11;;;;;;;;;;;;;;;;;;5099255;28;19916;-74
2022/09/24 07:46:36;;;;;;;;;;;;;;;;;;5081934;28;20006;-74
2022/09/24 07:49:02;;;;;;;;;;;;;;;;;;5076584;28;19920;-73
2022/09/24 07:51:27;;;;;;;;;;;;;;;;;;5083527;28;20056;-73
2022/09/24 07:53:52;;;;;;;;;;;;;;;;;;5086732;28;20284;-74
2022/09/24 07:56:18;;;;;;;;;;;;;;;;;;5087704;28;19939;-74
2022/09/24 07:58:43;;;;;;;;;;;;;;;;;;5087602;28;20074;-72
2022/09/24 08:01:09;;;;;;;;;;;;;;;;;;5083427;28;19972;-72
2022/09/24 08:03:35;;;;;;;;;;;;;;;;;;5085483;28;20258;-72
2022/09/24 08:06:00;;;;;;;;;;;;;;;;;;5081096;28;19919;-73
2022/09/24 08:08:25;;;;;;;;;;;;;;;;;;5095285;28;19920;-71
2022/09/24 08:10:51;;;;;;;;;;;;;;;;;;5077690;28;19927;-73
2022/09/24 08:13:16;;;;;;;;;;;;;;;;;;5101769;28;19927;-73
2022/09/24 08:15:41;;;;;;;;;;;;;;;;;;5096839;28;19966;-73
2022/09/24 08:18:06;;;;;;;;;;;;;;;;;;5076812;28;19920;-73
2022/09/24 08:20:31;;;;;;;;;;;;;;;;;;5080812;28;20324;-72
2022/09/24 08:22:56;;;;;;;;;;;;;;;;;;5078721;28;20360;-73
2022/09/24 08:25:22;;;;;;;;;;;;;;;;;;5082266;28;19912;-72
2022/09/24 08:27:47;;;;;;;;;;;;;;;;;;5071166;28;19920;-72
2022/09/24 08:30:12;;;;;;;;;;;;;;;;;;5064157;28;20002;-74
2022/09/24 08:32:37;;;;;;;;;;;;;;;;;;5065216;28;19966;-73
2022/09/24 08:35:02;;;;;;;;;;;;;;;;;;5071135;28;19920;-72
2022/09/24 08:37:28;;;;;;;;;;;;;;;;;;5083915;28;19928;-73
2022/09/24 08:39:53;;;;;;;;;;;;;;;;;;5063125;28;19912;-73
2022/09/24 08:42:18;;;;;;;;;;;;;;;;;;5062089;28;19912;-73
2022/09/24 08:47:27;;;;;;;;;;;;;;;;;;5076463;28;19927;-72
2022/09/24 08:49:52;;;;;;;;;;;;;;;;;;5066496;28;19920;-74
2022/09/24 08:52:18;;;;;;;;;;;;;;;;;;5082694;28;19916;-73
2022/09/24 08:54:43;;;;;;;;;;;;;;;;;;5063970;28;19912;-74
2022/09/24 08:57:08;;;;;;;;;;;;;;;;;;5066071;28;21685;-71
2022/09/24 08:59:36;;;;;;;;;;;;;;;;;;5080276;28;19939;-72
2022/09/24 09:02:01;;;;;;;;;;;;;;;;;;5065040;28;19948;-72
2022/09/24 09:04:26;;;;;;;;;;;;;;;;;;5075378;28;19970;-71
2022/09/24 09:06:52;;;;;;;;;;;;;;;;;;5079275;28;19959;-74
2022/09/24 09:09:18;;;;;;;;;;;;;;;;;;5080662;28;19920;-75
2022/09/24 09:11:43;;;;;;;;;;;;;;;;;;5082462;28;20010;-76
2022/09/24 09:14:08;;;;;;;;;;;;;;;;;;5064437;28;19973;-71
2022/09/24 09:16:34;;;;;;;;;;;;;;;;;;5083360;28;20001;-71
2022/09/24 09:18:59;;;;;;;;;;;;;;;;;;5078244;28;19927;-71
2022/09/24 09:21:24;;;;;;;;;;;;;;;;;;5079694;28;19919;-70
2022/09/24 09:23:49;;;;;;;;;;;;;;;;;;5065772;28;19916;-71
2022/09/24 09:26:17;;;;;;;;;;;;;;;;;;5079107;28;20022;-72
2022/09/24 09:28:42;;;;;;;;;;;;;;;;;;5074156;28;19912;-69
2022/09/24 09:31:07;;;;;;;;;;;;;;;;;;5084570;28;19927;-69
2022/09/24 09:33:32;;;;;;;;;;;;;;;;;;5065160;28;19919;-70
2022/09/24 09:35:57;;;;;;;;;;;;;;;;;;5065737;28;19919;-70
2022/09/24 09:38:22;;;;;;;;;;;;;;;;;;5064572;28;19920;-70
2022/09/24 09:40:47;;;;;;;;;;;;;;;;;;5063355;28;19995;-69
2022/09/24 09:43:13;;;;;;;;;;;;;;;;;;5071713;28;19908;-70
2022/09/24 09:45:38;;;;;;;;;;;;;;;;;;5077914;28;19916;-69
2022/09/24 09:48:03;;;;;;;;;;;;;;;;;;5074851;28;21306;-70
2022/09/24 09:50:28;;;;;;;;;;;;;;;;;;5081931;28;20328;-70
2022/09/24 09:52:54;;;;;;;;;;;;;;;;;;5081688;28;19947;-71
2022/09/24 09:55:19;;;;;;;;;;;;;;;;;;5064573;28;19961;-70
2022/09/24 09:57:44;;;;;;;;;;;;;;;;;;5068649;28;20396;-70
2022/09/24 10:00:09;;;;;;;;;;;;;;;;;;5065712;28;20257;-69
2022/09/24 10:02:35;;;;;;;;;;;;;;;;;;5084717;28;20219;-69
2022/09/24 10:05:00;;;;;;;;;;;;;;;;;;5084632;28;19920;-69
2022/09/24 10:07:26;;;;;;;;;;;;;;;;;;5083696;28;19966;-68
2022/09/24 10:09:51;;;;;;;;;;;;;;;;;;5065625;28;20021;-70
2022/09/24 10:12:16;;;;;;;;;;;;;;;;;;5074611;28;19912;-69
2022/09/24 10:14:41;;;;;;;;;;;;;;;;;;5063121;28;20276;-71
2022/09/24 10:17:06;;;;;;;;;;;;;;;;;;5060770;28;19921;-67
2022/09/24 10:19:32;;;;;;;;;;;;;;;;;;5064848;28;19912;-72
2022/09/24 10:21:57;;;;;;;;;;;;;;;;;;5081988;28;19912;-71
2022/09/24 10:24:22;;;;;;;;;;;;;;;;;;5065853;28;19957;-73
2022/09/24 10:26:47;;;;;;;;;;;;;;;;;;5061858;28;19916;-73
2022/09/24 10:31:56;;;;;;;;;;;;;;;;;;5083713;28;20378;-71
2022/09/24 10:34:22;;;;;;;;;;;;;;;;;;5068611;28;20003;-73
2022/09/24 10:36:47;;;;;;;;;;;;;;;;;;5081009;28;19916;-75
2022/09/24 10:39:12;;;;;;;;;;;;;;;;;;5078391;28;19912;-75
2022/09/24 10:41:37;;;;;;;;;;;;;;;;;;5063011;28;19916;-73
2022/09/24 10:44:02;;;;;;;;;;;;;;;;;;5062045;28;19930;-73
2022/09/24 10:46:27;;;;;;;;;;;;;;;;;;5060848;28;20382;-71
2022/09/24 10:48:53;;;;;;;;;;;;;;;;;;5060368;28;20163;-71
2022/09/24 10:51:18;;;;;;;;;;;;;;;;;;5063153;28;20408;-72
2022/09/24 10:53:43;;;;;;;;;;;;;;;;;;5081958;28;19923;-73
2022/09/24 10:56:08;;;;;;;;;;;;;;;;;;5058900;28;19956;-73
2022/09/24 10:58:33;;;;;;;;;;;;;;;;;;5080155;28;19912;-72
2022/09/24 11:00:58;;;;;;;;;;;;;;;;;;5081899;28;19916;-72
2022/09/24 11:03:23;;;;;;;;;;;;;;;;;;5064011;28;20098;-75
2022/09/24 11:05:49;;;;;;;;;;;;;;;;;;5059841;28;20414;-75
2022/09/24 11:08:16;;;;;;;;;;;;;;;;;;5069307;28;20017;-71
2022/09/24 11:10:42;;;;;;;;;;;;;;;;;;5066453;28;19927;-74
2022/09/24 11:13:07;;;;;;;;;;;;;;;;;;5064680;28;19916;-74
2022/09/24 11:15:32;;;;;;;;;;;;;;;;;;5086078;28;19928;-76
2022/09/24 11:17:58;;;;;;;;;;;;;;;;;;5063134;28;20360;-74
2022/09/24 11:20:23;;;;;;;;;;;;;;;;;;5075904;28;19919;-75
2022/09/24 11:22:48;;;;;;;;;;;;;;;;;;5058123;28;19919;-75
2022/09/24 11:25:13;;;;;;;;;;;;;;;;;;5078634;28;19912;-75
2022/09/24 11:27:38;;;;;;;;;;;;;;;;;;5077076;28;20380;-75
2022/09/24 11:30:03;;;;;;;;;;;;;;;;;;5078771;28;20418;-74
2022/09/24 11:32:29;;;;;;;;;;;;;;;;;;5082224;28;19962;-75
2022/09/24 11:34:54;;;;;;;;;;;;;;;;;;5065891;28;19920;-72
2022/09/24 11:37:19;;;;;;;;;;;;;;;;;;5077646;28;19955;-75
2022/09/24 11:39:44;;;;;;;;;;;;;;;;;;5066725;28;19916;-73
2022/09/24 11:42:11;;;;;;;;;;;;;;;;;;5061503;28;20365;-74
2022/09/24 11:44:36;;;;;;;;;;;;;;;;;;5086430;28;19916;-73
2022/09/24 11:47:01;;;;;;;;;;;;;;;;;;5081090;28;19989;-74
2022/09/24 11:49:26;;;;;;;;;;;;;;;;;;5077629;28;19971;-74
2022/09/24 11:51:51;;;;;;;;;;;;;;;;;;5069114;28;19931;-73
2022/09/24 11:54:16;;;;;;;;;;;;;;;;;;5063982;28;20292;-74
2022/09/24 11:56:42;;;;;;;;;;;;;;;;;;5081545;28;19923;-72
2022/09/24 11:59:10;;;;;;;;;;;;;;;;;;5073828;28;19927;-74
2022/09/24 12:01:35;;;;;;;;;;;;;;;;;;5069984;28;19912;-75
2022/09/24 12:04:00;;;;;;;;;;;;;;;;;;5069749;28;19909;-75
2022/09/24 12:06:26;;;;;;;;;;;;;;;;;;5070875;28;20387;-74
2022/09/24 12:08:51;;;;;;;;;;;;;;;;;;5069879;28;20414;-73
2022/09/24 12:11:17;;;;;;;;;;;;;;;;;;5087206;28;19923;-74
2022/09/24 12:13:42;;;;;;;;;;;;;;;;;;5063840;28;19911;-74
2022/09/24 12:16:08;;;;;;;;;;;;;;;;;;5058038;28;20000;-74
2022/09/24 12:18:33;;;;;;;;;;;;;;;;;;5062095;28;19977;-74
2022/09/24 12:21:00;;;;;;;;;;;;;;;;;;5072138;28;19912;-74
2022/09/24 12:23:26;;;;;;;;;;;;;;;;;;5082815;28;19920;-72
2022/09/24 12:25:52;;;;;;;;;;;;;;;;;;5061910;28;19962;-75
2022/09/24 12:32:53;;;;;;;;;;;;;;;;;;5081775;28;19916;-74
2022/09/24 12:33:47;;;;;;;;;;;;;;;;;;5084455;28;20121;-73
2022/09/24 12:36:12;;;;;;;;;;;;;;;;;;5082801;28;20323;-71
2022/09/24 12:38:37;;;;;;;;;;;;;;;;;;5066013;28;19912;-74
2022/09/24 12:41:03;;;;;;;;;;;;;;;;;;5082884;28;20490;-74
2022/09/24 12:43:28;;;;;;;;;;;;;;;;;;5066082;28;19935;-74
2022/09/24 12:45:53;;;;;;;;;;;;;;;;;;5081230;28;20293;-74
2022/09/24 12:48:19;;;;;;;;;;;;;;;;;;5068763;28;20300;-72
2022/09/24 12:50:46;;;;;;;;;;;;;;;;;;5081927;28;19916;-71
2022/09/24 12:53:11;;;;;;;;;;;;;;;;;;5061215;28;19935;-73
2022/09/24 12:55:37;;;;;;;;;;;;;;;;;;5065152;28;19940;-74
2022/09/24 12:58:03;;;;;;;;;;;;;;;;;;5092233;28;19989;-74
2022/09/24 13:00:28;;;;;;;;;;;;;;;;;;5065646;28;20025;-74
2022/09/24 13:02:53;;;;;;;;;;;;;;;;;;5071353;28;19920;-74
2022/09/24 13:05:19;;;;;;;;;;;;;;;;;;5064314;28;19912;-75
2022/09/24 13:07:44;;;;;;;;;;;;;;;;;;5085193;28;19973;-70
2022/09/24 13:10:09;;;;;;;;;;;;;;;;;;5085983;28;19966;-74
2022/09/24 13:12:35;;;;;;;;;;;;;;;;;;5080842;28;19928;-73
2022/09/24 13:15:01;;;;;;;;;;;;;;;;;;5069078;28;19912;-72
2022/09/24 13:17:26;;;;;;;;;;;;;;;;;;5085599;28;19943;-69
2022/09/24 13:19:51;;;;;;;;;;;;;;;;;;5080208;28;19938;-63
2022/09/24 13:22:17;;;;;;;;;;;;;;;;;;5069167;28;19919;-63
2022/09/24 13:24:42;;;;;;;;;;;;;;;;;;5086465;28;20395;-63
2022/09/24 13:27:07;;;;;;;;;;;;;;;;;;5081436;28;20356;-64
2022/09/24 13:29:32;;;;;;;;;;;;;;;;;;5088628;28;19919;-66
2022/09/24 13:31:58;;;;;;;;;;;;;;;;;;5086933;28;20368;-67
2022/09/24 13:34:23;;;;;;;;;;;;;;;;;;5075196;28;19913;-61
2022/09/24 13:36:48;;;;;;;;;;;;;;;;;;5078695;28;20054;-68
2022/09/24 13:39:13;;;;;;;;;;;;;;;;;;5080991;28;19916;-65
2022/09/24 13:41:38;;;;;;;;;;;;;;;;;;5081249;28;20141;-63
2022/09/24 13:44:03;;;;;;;;;;;;;;;;;;5081583;28;19974;-64
2022/09/24 13:46:28;;;;;;;;;;;;;;;;;;5082070;28;19919;-64
2022/09/24 13:48:54;;;;;;;;;;;;;;;;;;5078767;28;20376;-64
2022/09/24 13:51:19;;;;;;;;;;;;;;;;;;5076035;28;19912;-63
2022/09/24 13:53:44;;;;;;;;;;;;;;;;;;5080452;28;19920;-62
2022/09/24 13:56:09;;;;;;;;;;;;;;;;;;5078898;28;19912;-63
2022/09/24 13:58:34;;;;;;;;;;;;;;;;;;5079006;28;20297;-63
2022/09/24 14:00:59;;;;;;;;;;;;;;;;;;5090187;28;19912;-65
2022/09/24 14:03:24;;;;;;;;;;;;;;;;;;5065852;28;19922;-64
2022/09/24 14:05:50;;;;;;;;;;;;;;;;;;5075329;28;19931;-67
2022/09/24 14:08:15;;;;;;;;;;;;;;;;;;5083009;28;19923;-65
2022/09/24 14:10:40;;;;;;;;;;;;;;;;;;5089221;28;20351;-65
2022/09/24 14:13:05;;;;;;;;;;;;;;;;;;5081890;28;20272;-67
2022/09/24 14:15:30;;;;;;;;;;;;;;;;;;5058636;28;20486;-65
2022/09/24 14:17:55;;;;;;;;;;;;;;;;;;5080847;28;19920;-68
2022/09/24 14:20:21;;;;;;;;;;;;;;;;;;5079781;28;19952;-64
2022/09/24 14:22:46;;;;;;;;;;;;;;;;;;5075885;28;20056;-65
2022/09/24 14:25:11;;;;;;;;;;;;;;;;;;5074667;28;19975;-64
2022/09/24 14:27:38;;;;;;;;;;;;;;;;;;5077975;28;19912;-64
2022/09/24 14:30:03;;;;;;;;;;;;;;;;;;5082041;28;19970;-64
2022/09/24 14:32:29;;;;;;;;;;;;;;;;;;5083540;28;19948;-66
2022/09/24 14:34:54;;;;;;;;;;;;;;;;;;5080890;28;19912;-65
2022/09/24 14:37:19;;;;;;;;;;;;;;;;;;5076325;28;19932;-63
2022/09/24 14:39:44;;;;;;;;;;;;;;;;;;5065757;28;20297;-67
2022/09/24 14:42:09;;;;;;;;;;;;;;;;;;5078064;28;20015;-65
2022/09/24 14:44:36;;;;;;;;;;;;;;;;;;5082212;28;19927;-64
2022/09/24 14:47:01;;;;;;;;;;;;;;;;;;5078640;28;19928;-65
2022/09/24 14:49:26;;;;;;;;;;;;;;;;;;5075641;28;19920;-63
2022/09/24 14:51:51;;;;;;;;;;;;;;;;;;5079900;28;20746;-63
2022/09/24 14:54:16;;;;;;;;;;;;;;;;;;5081282;28;19943;-63
2022/09/24 14:56:42;;;;;;;;;;;;;;;;;;5058551;28;20007;-65
2022/09/24 14:59:07;;;;;;;;;;;;;;;;;;5081322;28;19915;-68
2022/09/24 15:01:32;;;;;;;;;;;;;;;;;;5080779;28;20009;-64
2022/09/24 15:03:57;;;;;;;;;;;;;;;;;;5064490;28;20348;-65
2022/09/24 15:06:22;;;;;;;;;;;;;;;;;;5080028;28;20030;-65
2022/09/24 15:08:47;;;;;;;;;;;;;;;;;;5080342;28;20323;-65
2022/09/24 15:11:12;;;;;;;;;;;;;;;;;;5078475;28;20114;-64
2022/09/24 15:13:38;;;;;;;;;;;;;;;;;;5081230;28;19912;-65
2022/09/24 15:16:03;;;;;;;;;;;;;;;;;;5061997;28;19921;-65
2022/09/24 15:18:28;;;;;;;;;;;;;;;;;;5074906;28;19947;-64
2022/09/24 15:20:55;;;;;;;;;;;;;;;;;;5064448;28;20005;-64
2022/09/24 15:23:20;;;;;;;;;;;;;;;;;;5061599;28;20002;-66
2022/09/24 15:25:46;;;;;;;;;;;;;;;;;;5076978;28;20099;-65
2022/09/24 15:28:11;;;;;;;;;;;;;;;;;;5076599;28;19965;-64
2022/09/24 15:30:38;;;;;;;;;;;;;;;;;;5079291;28;19912;-61
2022/09/24 15:33:03;;;;;;;;;;;;;;;;;;5060416;28;19916;-64
2022/09/24 15:35:28;;;;;;;;;;;;;;;;;;5077161;28;19927;-66
2022/09/24 15:37:53;;;;;;;;;;;;;;;;;;5080391;28;19912;-64
2022/09/24 15:40:21;;;;;;;;;;;;;;;;;;5084813;28;19941;-65
2022/09/24 15:42:46;;;;;;;;;;;;;;;;;;5083100;28;19916;-66
2022/09/24 15:45:12;;;;;;;;;;;;;;;;;;5065572;28;19924;-66
2022/09/24 15:47:37;;;;;;;;;;;;;;;;;;5076527;28;19926;-66
2022/09/24 15:50:02;;;;;;;;;;;;;;;;;;5083021;28;19912;-67
2022/09/24 15:52:27;;;;;;;;;;;;;;;;;;5063863;28;19960;-64
2022/09/24 15:54:52;;;;;;;;;;;;;;;;;;5083272;28;19912;-67
2022/09/24 15:57:17;;;;;;;;;;;;;;;;;;5065662;28;20294;-66
2022/09/24 15:59:43;;;;;;;;;;;;;;;;;;5082580;28;19920;-66
2022/09/24 16:02:08;;;;;;;;;;;;;;;;;;5082448;28;20318;-67
2022/09/24 16:04:33;;;;;;;;;;;;;;;;;;5064270;28;20357;-66
2022/09/24 16:06:58;;;;;;;;;;;;;;;;;;5084672;28;19959;-66
2022/09/24 16:09:23;;;;;;;;;;;;;;;;;;5062317;28;19920;-67
2022/09/24 16:11:48;;;;;;;;;;;;;;;;;;5079167;28;20247;-66
2022/09/24 16:14:13;;;;;;;;;;;;;;;;;;5083650;28;19956;-67
2022/09/24 16:16:39;;;;;;;;;;;;;;;;;;5061503;28;19920;-65
2022/09/24 16:19:05;;;;;;;;;;;;;;;;;;5084109;28;19919;-64
2022/09/24 16:21:31;;;;;;;;;;;;;;;;;;5071385;28;19943;-66
2022/09/24 16:23:56;;;;;;;;;;;;;;;;;;5089234;28;19956;-67
2022/09/24 16:26:22;;;;;;;;;;;;;;;;;;5079952;28;20365;-67
2022/09/24 16:28:49;;;;;;;;;;;;;;;;;;5073782;28;19912;-67
2022/09/24 16:31:14;;;;;;;;;;;;;;;;;;5087763;28;19916;-65
2022/09/24 16:33:39;;;;;;;;;;;;;;;;;;5076431;28;19919;-67
2022/09/24 16:36:04;;;;;;;;;;;;;;;;;;5080832;28;19928;-67
2022/09/24 16:38:30;;;;;;;;;;;;;;;;;;5078553;28;19972;-65
2022/09/24 16:40:55;;;;;;;;;;;;;;;;;;5078738;28;19916;-66
2022/09/24 16:43:20;;;;;;;;;;;;;;;;;;5080126;28;19944;-67
2022/09/24 16:45:45;;;;;;;;;;;;;;;;;;5081302;28;19916;-67
2022/09/24 16:48:10;;;;;;;;;;;;;;;;;;5078063;28;19916;-66
2022/09/24 16:50:35;;;;;;;;;;;;;;;;;;5080975;28;20298;-66
2022/09/24 16:53:00;;;;;;;;;;;;;;;;;;5079342;28;19923;-65